Time;durP1;ratioP1;P1;durP2;ratioP2;P2;SDS_P1;SDS_P2;PMS_P1;PMS_P2;Temp;Humidity;BMP_temperature;BMP_pressure;BME280_temperature;BME280_humidity;BME280_pressure;Samples;Min_cycle;Max_cycle;Signal;HPM_P1;HPM_P2
2023/10/30 00:01:49;;;;;;;;;;;;;;;-144.99;100.00;52513.31;5079946;28;19975;-69
2023/10/30 00:04:18;;;;;;;;;;;;;;;-144.99;100.00;52554.09;5078700;28;20012;-69
2023/10/30 00:06:44;;;;;;;;;;;;;;;-144.99;100.00;52497.00;5079173;28;19943;-69
2023/10/30 00:09:11;;;;;;;;;;;;;;;-144.99;100.00;52517.41;5079538;28;20382;-62
2023/10/30 00:11:37;;;;;;;;;;;;;;;-144.99;100.00;52525.56;5078110;28;19994;-67
2023/10/30 00:14:04;;;;;;;;;;;;;;;-144.99;100.00;52482.75;5082681;28;19936;-67
2023/10/30 00:16:30;;;;;;;;;;;;;;;-144.99;100.00;52513.31;5082545;28;20066;-66
2023/10/30 00:18:58;;;;;;;;;;;;;;;-144.99;100.00;52509.25;5080838;28;19936;-66
2023/10/30 00:21:26;;;;;;;;;;;;;;;-144.99;100.00;52545.94;5081160;28;20023;-66
2023/10/30 00:23:52;;;;;;;;;;;;;;;-144.99;100.00;52545.94;5085006;28;19963;-66
2023/10/30 00:26:19;;;;;;;;;;;;;;;-144.99;100.00;52509.25;5092293;28;20382;-67
2023/10/30 00:28:46;;;;;;;;;;;;;;;-144.99;100.00;52525.56;5093021;28;20035;-66
2023/10/30 00:31:12;;;;;;;;;;;;;;;-144.99;100.00;52545.94;5082398;28;20033;-66
2023/10/30 00:33:39;;;;;;;;;;;;;;;-144.99;100.00;52537.78;5078701;28;19932;-67
2023/10/30 00:36:05;;;;;;;;;;;;;;;-144.99;100.00;52562.25;5073668;28;19952;-66
2023/10/30 00:38:33;;;;;;;;;;;;;;;-144.99;100.00;52505.16;5073887;28;20019;-66
2023/10/30 00:41:00;;;;;;;;;;;;;;;-144.99;100.00;52503.13;5075891;28;19947;-67
2023/10/30 00:43:26;;;;;;;;;;;;;;;-144.99;100.00;52570.38;5085840;28;19953;-67
2023/10/30 00:45:53;;;;;;;;;;;;;;;-144.99;100.00;52525.56;5105734;28;20374;-67
2023/10/30 00:48:19;;;;;;;;;;;;;;;-144.99;100.00;52517.41;4746368;28;10000063;-67
2023/10/30 00:50:46;;;;;;;;;;;;;;;-144.99;100.00;52537.78;5103271;28;20023;-67
2023/10/30 00:53:12;;;;;;;;;;;;;;;-144.99;100.00;52529.63;5108526;28;19940;-67
2023/10/30 00:55:40;;;;;;;;;;;;;;;-144.99;100.00;52550.00;5103778;28;19954;-66
2023/10/30 00:58:07;;;;;;;;;;;;;;;-144.99;100.00;52541.84;5101834;28;19938;-67
2023/10/30 01:00:34;;;;;;;;;;;;;;;-144.99;100.00;52525.56;5109501;28;19924;-67
2023/10/30 01:03:00;;;;;;;;;;;;;;;-144.99;100.00;52529.63;5097682;28;21144;-74
2023/10/30 01:05:27;;;;;;;;;;;;;;;-144.99;100.00;52545.94;5095941;28;20001;-72
2023/10/30 01:07:53;;;;;;;;;;;;;;;-144.99;100.00;52521.47;5094557;28;19928;-69
2023/10/30 01:10:20;;;;;;;;;;;;;;;-144.99;100.00;52529.63;5093713;28;20027;-68
2023/10/30 01:12:48;;;;;;;;;;;;;;;-144.99;100.00;52521.47;5097452;28;20042;-69
2023/10/30 01:15:14;;;;;;;;;;;;;;;-144.99;100.00;52517.41;5093204;28;19939;-72
2023/10/30 01:17:41;;;;;;;;;;;;;;;-144.99;100.00;52517.41;5110353;28;19924;-71
2023/10/30 01:20:08;;;;;;;;;;;;;;;-144.99;100.00;52525.56;5104245;28;19978;-71
2023/10/30 01:22:34;;;;;;;;;;;;;;;-144.99;100.00;52541.84;5092245;28;19968;-71
2023/10/30 01:25:01;;;;;;;;;;;;;;;-144.99;100.00;52554.09;5099344;28;19977;-70
2023/10/30 01:27:27;;;;;;;;;;;;;;;-144.99;100.00;52529.63;5083511;28;20030;-70
2023/10/30 01:29:55;;;;;;;;;;;;;;;-144.99;100.00;52537.78;5089629;28;19947;-71
2023/10/30 01:32:22;;;;;;;;;;;;;;;-144.99;100.00;52550.00;5084516;28;20034;-71
2023/10/30 01:34:49;;;;;;;;;;;;;;;-144.99;100.00;52550.00;5077470;28;19924;-72
2023/10/30 01:37:20;;;;;;;;;;;;;;;-144.99;100.00;52529.63;5076921;28;19931;-71
2023/10/30 01:39:47;;;;;;;;;;;;;;;-144.99;100.00;52531.66;5077072;28;20445;-72
2023/10/30 01:42:15;;;;;;;;;;;;;;;-144.99;100.00;52558.16;5076663;28;20171;-72
2023/10/30 01:44:55;;;;;;;;;;;;;;;-144.99;100.00;52543.91;5079710;28;19924;-72
2023/10/30 01:47:22;;;;;;;;;;;;;;;-144.99;100.00;52562.25;5078093;28;19928;-70
2023/10/30 01:49:48;;;;;;;;;;;;;;;-144.99;100.00;52558.16;5076918;28;20126;-71
2023/10/30 01:52:16;;;;;;;;;;;;;;;-144.99;100.00;52517.41;5078264;28;19938;-70
2023/10/30 01:54:43;;;;;;;;;;;;;;;-144.99;100.00;52545.94;5077167;28;19963;-71
2023/10/30 01:57:10;;;;;;;;;;;;;;;-144.99;100.00;52552.03;5076596;28;19981;-71
2023/10/30 01:59:36;;;;;;;;;;;;;;;-144.99;100.00;52507.19;5081041;28;19924;-71
2023/10/30 02:02:04;;;;;;;;;;;;;;;-144.99;100.00;52558.16;5088977;28;19924;-68
2023/10/30 02:04:30;;;;;;;;;;;;;;;-144.99;100.00;52533.69;5081985;28;20757;-68
2023/10/30 02:06:58;;;;;;;;;;;;;;;-144.99;100.00;52525.56;5084036;28;20330;-68
2023/10/30 02:09:25;;;;;;;;;;;;;;;-144.99;100.00;52513.31;5076718;28;20617;-68
2023/10/30 02:11:51;;;;;;;;;;;;;;;-144.99;100.00;52558.16;5077071;28;20020;-68
2023/10/30 02:14:18;;;;;;;;;;;;;;;-144.99;100.00;52552.03;5086906;28;20004;-68
2023/10/30 02:16:44;;;;;;;;;;;;;;;-144.99;100.00;52545.94;5081897;28;19931;-68
2023/10/30 02:19:18;;;;;;;;;;;;;;;-144.99;100.00;52562.25;5103744;28;19924;-70
2023/10/30 02:21:44;;;;;;;;;;;;;;;-144.99;100.00;52578.53;5092851;28;19941;-67
2023/10/30 02:24:11;;;;;;;;;;;;;;;-144.99;100.00;52545.94;5091982;28;20016;-68
2023/10/30 02:26:39;;;;;;;;;;;;;;;-144.99;100.00;52509.25;5093840;28;19928;-68
2023/10/30 02:29:06;;;;;;;;;;;;;;;-144.99;100.00;52550.00;5087545;28;19928;-68
2023/10/30 02:31:33;;;;;;;;;;;;;;;-144.99;100.00;52525.56;5085197;28;20011;-69
2023/10/30 02:34:00;;;;;;;;;;;;;;;-144.99;100.00;52517.41;5086501;28;19947;-69
2023/10/30 02:36:27;;;;;;;;;;;;;;;-144.99;100.00;52529.63;5083669;28;19928;-69
2023/10/30 02:38:53;;;;;;;;;;;;;;;-144.99;100.00;52545.94;5077506;28;19928;-69
2023/10/30 02:41:20;;;;;;;;;;;;;;;-144.99;100.00;52519.44;5076524;28;19930;-72
2023/10/30 02:43:47;;;;;;;;;;;;;;;-144.99;100.00;52517.41;5076109;28;19932;-73
2023/10/30 02:46:14;;;;;;;;;;;;;;;-144.99;100.00;52554.09;5074977;28;20297;-71
2023/10/30 02:48:40;;;;;;;;;;;;;;;-144.99;100.00;52517.41;5075919;28;20034;-73
2023/10/30 02:51:07;;;;;;;;;;;;;;;-144.99;100.00;52529.63;5077565;28;19970;-73
2023/10/30 02:53:33;;;;;;;;;;;;;;;-144.99;100.00;52537.78;5081009;28;19989;-73
2023/10/30 02:56:00;;;;;;;;;;;;;;;-144.99;100.00;52541.84;5086211;28;19927;-72
2023/10/30 02:58:27;;;;;;;;;;;;;;;-144.99;100.00;52529.63;5087682;28;20322;-73
2023/10/30 03:00:55;;;;;;;;;;;;;;;-144.99;100.00;52541.84;5080305;27;19972;-74
2023/10/30 03:03:22;;;;;;;;;;;;;;;-144.99;100.00;52554.09;5081706;28;19931;-74
2023/10/30 03:05:50;;;;;;;;;;;;;;;-144.99;100.00;52550.00;5073966;28;19936;-73
2023/10/30 03:08:16;;;;;;;;;;;;;;;-144.99;100.00;52545.94;5074511;28;19994;-70
2023/10/30 03:10:43;;;;;;;;;;;;;;;-144.99;100.00;52521.47;5073360;28;20010;-69
2023/10/30 03:13:09;;;;;;;;;;;;;;;-144.99;100.00;52529.63;5075743;28;20340;-70
2023/10/30 03:15:36;;;;;;;;;;;;;;;-144.99;100.00;52582.63;5075849;28;19939;-70
2023/10/30 03:18:04;;;;;;;;;;;;;;;-144.99;100.00;52525.56;5075233;28;19967;-71
2023/10/30 03:20:30;;;;;;;;;;;;;;;-144.99;100.00;52509.25;5075202;28;19932;-68
2023/10/30 03:22:57;;;;;;;;;;;;;;;-144.99;100.00;52578.53;5078135;28;19971;-67
2023/10/30 03:25:23;;;;;;;;;;;;;;;-144.99;100.00;52570.38;5089397;28;20027;-66
2023/10/30 03:27:49;;;;;;;;;;;;;;;-144.99;100.00;52537.78;5088073;28;20483;-68
2023/10/30 03:30:16;;;;;;;;;;;;;;;-144.99;100.00;52525.56;5082960;28;20001;-68
2023/10/30 03:32:42;;;;;;;;;;;;;;;-144.99;100.00;52537.78;5089561;28;19963;-67
2023/10/30 03:35:10;;;;;;;;;;;;;;;-144.99;100.00;52513.31;5086995;28;20023;-66
2023/10/30 03:37:37;;;;;;;;;;;;;;;-144.99;100.00;52519.44;5091683;28;20013;-67
2023/10/30 03:40:04;;;;;;;;;;;;;;;-144.99;100.00;52533.69;5087873;28;20029;-67
2023/10/30 03:42:30;;;;;;;;;;;;;;;-144.99;100.00;52525.56;5090319;28;19932;-67
2023/10/30 03:44:57;;;;;;;;;;;;;;;-144.99;100.00;52537.78;5086005;28;20023;-67
2023/10/30 03:47:23;;;;;;;;;;;;;;;-144.99;100.00;52511.28;5089183;28;19966;-67
2023/10/30 03:49:50;;;;;;;;;;;;;;;-144.99;100.00;52529.63;5095314;28;19932;-66
2023/10/30 03:52:17;;;;;;;;;;;;;;;-144.99;100.00;52541.84;5091462;28;19970;-72
2023/10/30 03:54:44;;;;;;;;;;;;;;;-144.99;100.00;52550.00;5086032;28;20375;-70
2023/10/30 03:57:10;;;;;;;;;;;;;;;-144.99;100.00;52554.09;5088456;28;19975;-70
2023/10/30 03:59:37;;;;;;;;;;;;;;;-144.99;100.00;52554.09;5088385;28;20354;-71
2023/10/30 04:02:03;;;;;;;;;;;;;;;-144.99;100.00;52517.41;5095000;28;20369;-72
2023/10/30 04:04:30;;;;;;;;;;;;;;;-144.99;100.00;52525.56;5084381;28;20021;-73
2023/10/30 04:06:56;;;;;;;;;;;;;;;-144.99;100.00;52541.84;5087325;28;20433;-70
2023/10/30 04:09:24;;;;;;;;;;;;;;;-144.99;100.00;52545.94;5083319;28;20026;-70
2023/10/30 04:11:51;;;;;;;;;;;;;;;-144.99;100.00;52545.94;5082592;28;19924;-74
2023/10/30 04:14:17;;;;;;;;;;;;;;;-144.99;100.00;52513.31;5080396;28;20377;-70
2023/10/30 04:16:44;;;;;;;;;;;;;;;-144.99;100.00;52525.56;5075742;28;19928;-68
2023/10/30 04:19:11;;;;;;;;;;;;;;;-144.99;100.00;52556.13;5075229;28;19955;-68
2023/10/30 04:21:37;;;;;;;;;;;;;;;-144.99;100.00;52521.47;5072785;28;19934;-71
2023/10/30 04:24:04;;;;;;;;;;;;;;;-144.99;100.00;52511.28;5079268;28;20072;-68
2023/10/30 04:26:32;;;;;;;;;;;;;;;-144.99;100.00;52562.25;5076238;28;19994;-72
2023/10/30 04:28:59;;;;;;;;;;;;;;;-144.99;100.00;52545.94;5078144;28;20293;-70
2023/10/30 04:31:25;;;;;;;;;;;;;;;-144.99;100.00;52554.09;5078202;28;19984;-69
2023/10/30 04:33:52;;;;;;;;;;;;;;;-144.99;100.00;52558.16;5081490;28;19972;-70
2023/10/30 04:36:18;;;;;;;;;;;;;;;-144.99;100.00;52531.66;5077255;28;19932;-72
2023/10/30 04:38:45;;;;;;;;;;;;;;;-144.99;100.00;52545.94;5073401;28;19932;-70
2023/10/30 04:41:11;;;;;;;;;;;;;;;-144.99;100.00;52541.84;5074100;28;20066;-70
2023/10/30 04:43:39;;;;;;;;;;;;;;;-144.99;100.00;52525.56;5075407;28;19978;-68
2023/10/30 04:46:06;;;;;;;;;;;;;;;-144.99;100.00;52533.69;5074434;28;20014;-68
2023/10/30 04:48:33;;;;;;;;;;;;;;;-144.99;100.00;52509.25;5072855;28;19972;-69
2023/10/30 04:50:59;;;;;;;;;;;;;;;-144.99;100.00;52570.38;5073852;28;20038;-69
2023/10/30 04:53:28;;;;;;;;;;;;;;;-144.99;100.00;52537.78;5073318;28;20011;-70
2023/10/30 04:55:55;;;;;;;;;;;;;;;-144.99;100.00;52550.00;5071256;28;19944;-68
2023/10/30 04:58:21;;;;;;;;;;;;;;;-144.99;100.00;52517.41;5070829;28;19932;-68
2023/10/30 05:00:49;;;;;;;;;;;;;;;-144.99;100.00;52541.84;5073841;28;20531;-68
2023/10/30 05:03:16;;;;;;;;;;;;;;;-144.99;100.00;52517.41;5075551;28;20281;-70
2023/10/30 05:05:42;;;;;;;;;;;;;;;-144.99;100.00;52545.94;5090368;28;19971;-69
2023/10/30 05:08:09;;;;;;;;;;;;;;;-144.99;100.00;52537.78;5077673;28;19928;-69
2023/10/30 05:10:35;;;;;;;;;;;;;;;-144.99;100.00;52574.47;5077119;28;20005;-68
2023/10/30 05:13:02;;;;;;;;;;;;;;;-144.99;100.00;52515.34;5077586;28;21114;-67
2023/10/30 05:15:28;;;;;;;;;;;;;;;-144.99;100.00;52550.00;5076168;28;19993;-67
2023/10/30 05:17:56;;;;;;;;;;;;;;;-144.99;100.00;52509.25;5077375;28;19972;-67
2023/10/30 05:20:22;;;;;;;;;;;;;;;-144.99;100.00;52545.94;5078711;28;20349;-67
2023/10/30 05:22:49;;;;;;;;;;;;;;;-144.99;100.00;52505.16;5094174;28;19955;-66
2023/10/30 05:25:16;;;;;;;;;;;;;;;-144.99;100.00;52533.69;5085522;28;20370;-66
2023/10/30 05:27:42;;;;;;;;;;;;;;;-144.99;100.00;52533.69;5078413;28;19947;-67
2023/10/30 05:30:09;;;;;;;;;;;;;;;-144.99;100.00;52576.50;5078526;28;20433;-69
2023/10/30 05:32:36;;;;;;;;;;;;;;;-144.99;100.00;52513.31;5074783;28;19932;-68
2023/10/30 05:35:04;;;;;;;;;;;;;;;-144.99;100.00;52525.56;5077215;28;20019;-71
2023/10/30 05:37:31;;;;;;;;;;;;;;;-144.99;100.00;52541.84;5075492;28;19928;-70
2023/10/30 05:39:57;;;;;;;;;;;;;;;-144.99;100.00;52543.91;5075678;28;19942;-70
2023/10/30 05:42:24;;;;;;;;;;;;;;;-144.99;100.00;52550.00;5075909;28;20346;-70
2023/10/30 05:44:51;;;;;;;;;;;;;;;-144.99;100.00;52537.78;5074139;28;19928;-70
2023/10/30 05:47:17;;;;;;;;;;;;;;;-144.99;100.00;52515.34;5073788;28;19939;-69
2023/10/30 05:49:45;;;;;;;;;;;;;;;-144.99;100.00;52521.47;5074027;28;20290;-70
2023/10/30 05:52:13;;;;;;;;;;;;;;;-144.99;100.00;52509.25;5073478;28;19944;-70
2023/10/30 05:54:40;;;;;;;;;;;;;;;-144.99;100.00;52490.91;5083802;28;19924;-68
2023/10/30 05:57:06;;;;;;;;;;;;;;;-144.99;100.00;52521.47;5083312;28;19932;-69
2023/10/30 05:59:33;;;;;;;;;;;;;;;-144.99;100.00;52554.09;5084306;28;19924;-70
2023/10/30 06:01:59;;;;;;;;;;;;;;;-144.99;100.00;52525.56;5084666;28;20007;-69
2023/10/30 06:04:26;;;;;;;;;;;;;;;-144.99;100.00;52550.00;5074682;28;19985;-69
2023/10/30 06:06:53;;;;;;;;;;;;;;;-144.99;100.00;52537.78;5077833;28;20115;-70
2023/10/30 06:09:21;;;;;;;;;;;;;;;-144.99;100.00;52490.91;5075467;28;19986;-69
2023/10/30 06:11:48;;;;;;;;;;;;;;;-144.99;100.00;52556.13;5076393;28;20027;-69
2023/10/30 06:14:15;;;;;;;;;;;;;;;-144.99;100.00;52570.38;5075666;28;19995;-69
2023/10/30 06:16:43;;;;;;;;;;;;;;;-144.99;100.00;52525.56;5076834;28;20015;-69
2023/10/30 06:19:09;;;;;;;;;;;;;;;-144.99;100.00;52521.47;5075465;28;19928;-69
2023/10/30 06:21:36;;;;;;;;;;;;;;;-144.99;100.00;52558.16;5077018;28;20322;-69
2023/10/30 06:24:02;;;;;;;;;;;;;;;-144.99;100.00;52545.94;5078016;28;19985;-69
2023/10/30 06:26:30;;;;;;;;;;;;;;;-144.99;100.00;52513.31;4382034;28;10000782;-69
2023/10/30 06:28:57;;;;;;;;;;;;;;;-144.99;100.00;52523.50;5088046;28;19991;-71
2023/10/30 06:31:23;;;;;;;;;;;;;;;-144.99;100.00;52556.13;5093319;28;20366;-69
2023/10/30 06:33:51;;;;;;;;;;;;;;;-144.99;100.00;52525.56;5084177;28;20105;-70
2023/10/30 06:36:17;;;;;;;;;;;;;;;-144.99;100.00;52566.31;5083524;28;19951;-71
2023/10/30 06:38:44;;;;;;;;;;;;;;;-144.99;100.00;52550.00;5089541;28;20015;-69
2023/10/30 06:41:10;;;;;;;;;;;;;;;-144.99;100.00;52545.94;5084181;28;20066;-70
2023/10/30 06:43:39;;;;;;;;;;;;;;;-144.99;100.00;52603.00;5084518;28;20358;-70
2023/10/30 06:46:08;;;;;;;;;;;;;;;-144.99;100.00;52560.19;5102480;28;19928;-71
2023/10/30 06:48:34;;;;;;;;;;;;;;;-144.99;100.00;52550.00;5100366;28;20306;-70
2023/10/30 06:51:01;;;;;;;;;;;;;;;-144.99;100.00;52562.25;5093212;28;19966;-70
2023/10/30 06:53:27;;;;;;;;;;;;;;;-144.99;100.00;52545.94;5090141;28;20003;-70
2023/10/30 06:55:54;;;;;;;;;;;;;;;-144.99;100.00;52539.81;5093271;28;20473;-70
2023/10/30 06:58:21;;;;;;;;;;;;;;;-144.99;100.00;52543.91;5089097;28;20011;-76
2023/10/30 07:00:49;;;;;;;;;;;;;;;-144.99;100.00;52543.91;5095996;28;19932;-76
2023/10/30 07:03:16;;;;;;;;;;;;;;;-144.99;100.00;52574.47;5085813;28;19993;-75
2023/10/30 07:05:43;;;;;;;;;;;;;;;-144.99;100.00;52523.50;5073774;28;20428;-75
2023/10/30 07:08:09;;;;;;;;;;;;;;;-144.99;100.00;52558.16;5086325;28;20495;-75
2023/10/30 07:10:36;;;;;;;;;;;;;;;-144.99;100.00;52523.50;5088133;28;20222;-77
2023/10/30 07:13:02;;;;;;;;;;;;;;;-144.99;100.00;52539.81;5079181;28;20313;-71
2023/10/30 07:15:29;;;;;;;;;;;;;;;-144.99;100.00;52545.94;5079627;28;19927;-70
2023/10/30 07:17:57;;;;;;;;;;;;;;;-144.99;100.00;52533.69;5094990;28;20019;-69
2023/10/30 07:20:24;;;;;;;;;;;;;;;-144.99;100.00;52517.41;5093580;28;19967;-70
2023/10/30 07:22:50;;;;;;;;;;;;;;;-144.99;100.00;52562.25;5088892;28;19948;-70
2023/10/30 07:25:17;;;;;;;;;;;;;;;-144.99;100.00;52547.97;5081991;28;19967;-70
2023/10/30 07:27:43;;;;;;;;;;;;;;;-144.99;100.00;52550.00;5083744;28;19964;-70
2023/10/30 07:30:10;;;;;;;;;;;;;;;-144.99;100.00;52547.97;5093776;28;19963;-70
2023/10/30 07:32:37;;;;;;;;;;;;;;;-144.99;100.00;52537.78;5085460;28;19968;-70
2023/10/30 07:35:06;;;;;;;;;;;;;;;-144.99;100.00;52541.84;5089836;28;20011;-70
2023/10/30 07:37:32;;;;;;;;;;;;;;;-144.99;100.00;52541.84;5091703;28;20002;-70
2023/10/30 07:39:59;;;;;;;;;;;;;;;-144.99;100.00;52545.94;5087275;28;20015;-70
2023/10/30 07:42:25;;;;;;;;;;;;;;;-144.99;100.00;52543.91;5088409;28;20030;-70
2023/10/30 07:44:52;;;;;;;;;;;;;;;-144.99;100.00;52517.41;5084537;28;20420;-70
2023/10/30 07:47:18;;;;;;;;;;;;;;;-144.99;100.00;52562.25;5087303;28;20404;-70
2023/10/30 07:49:45;;;;;;;;;;;;;;;-144.99;100.00;52570.38;5089044;28;19928;-70
2023/10/30 07:52:13;;;;;;;;;;;;;;;-144.99;100.00;52533.69;5085857;28;19928;-70
2023/10/30 07:54:40;;;;;;;;;;;;;;;-144.99;100.00;52550.00;5096188;28;19923;-71
2023/10/30 07:57:08;;;;;;;;;;;;;;;-144.99;100.00;52525.56;5079636;28;19990;-70
2023/10/30 07:59:35;;;;;;;;;;;;;;;-144.99;100.00;52521.47;5090055;28;19967;-70
2023/10/30 08:02:03;;;;;;;;;;;;;;;-144.99;100.00;52509.25;5083150;28;19924;-70
2023/10/30 08:04:29;;;;;;;;;;;;;;;-144.99;100.00;52470.50;5092184;28;19935;-70
2023/10/30 08:06:56;;;;;;;;;;;;;;;-144.99;100.00;52517.41;5082714;28;20176;-70
2023/10/30 08:09:24;;;;;;;;;;;;;;;-144.99;100.00;52513.31;5089023;28;19924;-71
2023/10/30 08:11:50;;;;;;;;;;;;;;;-144.99;100.00;52472.56;5086610;28;20370;-72
2023/10/30 08:14:17;;;;;;;;;;;;;;;-144.99;100.00;52517.41;5094887;28;19928;-71
2023/10/30 08:16:43;;;;;;;;;;;;;;;-144.99;100.00;52513.31;5095683;28;20001;-71
2023/10/30 08:19:10;;;;;;;;;;;;;;;-144.99;100.00;52482.75;4733456;28;9999626;-71
2023/10/30 08:21:36;;;;;;;;;;;;;;;-144.99;100.00;52480.72;4743559;28;10000041;-71
2023/10/30 08:24:03;;;;;;;;;;;;;;;-144.99;98.35;52488.84;5075970;28;19942;-71
2023/10/30 08:26:31;;;;;;;;;;;;;;;-144.99;98.36;52505.16;5078959;28;19996;-71
2023/10/30 08:28:57;;;;;;;;;;;;;;;-144.99;96.65;52509.25;5084269;28;19974;-71
2023/10/30 08:31:24;;;;;;;;;;;;;;;-144.99;95.33;52472.56;5090879;28;19927;-71
2023/10/30 08:33:50;;;;;;;;;;;;;;;-144.99;95.02;52484.78;5092723;28;19928;-71
2023/10/30 08:36:23;;;;;;;;;;;;;;;-144.99;93.96;52480.72;5093251;28;19935;-71
2023/10/30 08:38:50;;;;;;;;;;;;;;;-144.99;93.87;52448.09;5079847;28;19973;-71
2023/10/30 08:41:19;;;;;;;;;;;;;;;-144.99;93.33;52490.91;5092468;28;20314;-71
2023/10/30 08:43:47;;;;;;;;;;;;;;;-144.99;92.07;52439.94;5089955;28;20005;-71
2023/10/30 08:46:16;;;;;;;;;;;;;;;-144.99;92.15;52439.94;5089108;28;20192;-71
2023/10/30 08:48:43;;;;;;;;;;;;;;;-144.99;91.53;52480.72;5086535;28;19928;-71
2023/10/30 08:51:10;;;;;;;;;;;;;;;-144.99;90.96;52452.16;5086553;28;19927;-71
2023/10/30 08:53:37;;;;;;;;;;;;;;;-144.99;90.51;52499.06;5093842;28;19928;-71
2023/10/30 08:56:04;;;;;;;;;;;;;;;-144.99;88.78;52460.31;5091484;28;19947;-72
2023/10/30 08:58:30;;;;;;;;;;;;;;;-144.99;88.55;52452.16;5095504;28;19989;-71
2023/10/30 09:00:59;;;;;;;;;;;;;;;-144.99;88.51;52464.41;5084125;28;19936;-71
2023/10/30 09:03:26;;;;;;;;;;;;;;;-144.99;89.50;52486.81;5085852;28;19939;-71
2023/10/30 09:05:52;;;;;;;;;;;;;;;-144.99;88.04;52452.16;5087694;28;19928;-72
2023/10/30 09:08:19;;;;;;;;;;;;;;;-144.99;87.30;52419.56;5095263;28;19971;-71
2023/10/30 09:10:45;;;;;;;;;;;;;;;-144.99;85.24;52403.25;5090265;28;19933;-71
2023/10/30 09:13:12;;;;;;;;;;;;;;;-144.99;85.41;52421.59;5087520;28;20218;-72
2023/10/30 09:15:38;;;;;;;;;;;;;;;-144.99;84.61;52456.25;5094839;28;19965;-72
2023/10/30 09:18:06;;;;;;;;;;;;;;;-144.99;84.90;52452.16;5098494;28;20393;-72
2023/10/30 09:20:33;;;;;;;;;;;;;;;-144.99;83.41;52425.66;5082560;28;19940;-72
2023/10/30 09:22:59;;;;;;;;;;;;;;;-144.99;81.31;52444.03;5086776;28;19982;-72
2023/10/30 09:25:26;;;;;;;;;;;;;;;-144.99;82.09;52435.88;5086290;28;19951;-71
2023/10/30 09:27:52;;;;;;;;;;;;;;;-144.99;81.38;52468.47;5087087;28;20062;-73
2023/10/30 09:30:19;;;;;;;;;;;;;;;-144.99;81.35;52439.94;5096637;28;19967;-73
2023/10/30 09:32:46;;;;;;;;;;;;;;;-144.99;82.39;52407.31;5085404;28;20341;-71
2023/10/30 09:35:14;;;;;;;;;;;;;;;-144.99;80.33;52468.47;5085438;28;19924;-71
2023/10/30 09:37:40;;;;;;;;;;;;;;;-144.99;79.30;52431.78;5088428;28;20568;-72
2023/10/30 09:40:08;;;;;;;;;;;;;;;-144.99;77.14;52413.44;5101141;28;20150;-72
2023/10/30 09:42:35;;;;;;;;;;;;;;;-144.99;76.57;52407.31;5094832;28;19932;-73
2023/10/30 09:45:02;;;;;;;;;;;;;;;-144.99;76.40;52413.44;5078402;28;20034;-73
2023/10/30 09:47:29;;;;;;;;;;;;;;;-144.99;76.68;52374.72;5090787;28;19989;-71
2023/10/30 09:49:57;;;;;;;;;;;;;;;-144.99;75.08;52372.69;5096957;28;20004;-73
2023/10/30 09:52:27;;;;;;;;;;;;;;;-144.99;73.71;52325.81;5094523;28;19924;-73
2023/10/30 09:54:55;;;;;;;;;;;;;;;-144.99;71.35;52317.66;5092299;27;20452;-73
2023/10/30 09:57:21;;;;;;;;;;;;;;;-144.99;72.06;52366.56;5080576;28;19927;-72
2023/10/30 09:59:52;;;;;;;;;;;;;;;-144.99;71.31;52354.34;5083254;28;20352;-72
2023/10/30 10:02:18;;;;;;;;;;;;;;;-144.99;69.83;52297.25;5090324;28;19932;-72
2023/10/30 10:04:45;;;;;;;;;;;;;;;-144.99;67.73;52256.50;5078501;28;19951;-73
2023/10/30 10:07:13;;;;;;;;;;;;;;;-144.99;67.27;52264.66;5079624;28;20398;-73
2023/10/30 10:09:55;;;;;;;;;;;;;;;-144.99;66.07;52246.31;5088764;28;19928;-73
2023/10/30 10:12:23;;;;;;;;;;;;;;;-144.99;65.43;52240.19;5091090;28;19988;-73
2023/10/30 10:14:49;;;;;;;;;;;;;;;-144.99;63.84;52195.34;5083315;28;20028;-72
2023/10/30 10:17:16;;;;;;;;;;;;;;;-144.99;63.73;52203.50;5085330;28;19932;-73
2023/10/30 10:19:46;;;;;;;;;;;;;;;-144.99;64.73;52272.81;5083578;28;20019;-72
2023/10/30 10:22:26;;;;;;;;;;;;;;;-144.99;66.83;52256.50;5089566;28;20074;-73
2023/10/30 10:24:53;;;;;;;;;;;;;;;-144.99;67.63;52315.59;5086010;28;20238;-73
2023/10/30 10:27:20;;;;;;;;;;;;;;;-144.99;67.55;52327.84;5092270;28;20035;-73
2023/10/30 10:29:52;;;;;;;;;;;;;;;-144.99;69.01;52293.19;5096931;28;20386;-74
2023/10/30 10:32:18;;;;;;;;;;;;;;;-144.99;69.99;52358.41;5089987;28;19954;-73
2023/10/30 10:34:47;;;;;;;;;;;;;;;-144.99;71.53;52388.97;5083844;28;19927;-72
2023/10/30 10:37:17;;;;;;;;;;;;;;;-144.99;72.00;52346.19;5077966;28;19928;-72
2023/10/30 10:39:48;;;;;;;;;;;;;;;-144.99;71.94;52395.09;5096734;28;19928;-72
2023/10/30 10:42:15;;;;;;;;;;;;;;;-144.99;70.57;52264.66;5096776;28;19938;-72
2023/10/30 10:44:42;;;;;;;;;;;;;;;-144.99;69.63;52374.72;5091610;28;19988;-72
2023/10/30 10:47:10;;;;;;;;;;;;;;;-144.99;68.68;52331.91;5084265;28;19928;-72
2023/10/30 10:49:36;;;;;;;;;;;;;;;-144.99;69.04;52313.56;5095027;28;20018;-72
2023/10/30 10:52:04;;;;;;;;;;;;;;;-144.99;67.68;52309.50;5081507;28;20023;-72
2023/10/30 10:54:35;;;;;;;;;;;;;;;-144.99;67.31;52227.97;5080639;28;20274;-72
2023/10/30 10:57:03;;;;;;;;;;;;;;;-144.99;67.24;52297.25;5079302;28;20370;-72
2023/10/30 10:59:31;;;;;;;;;;;;;;;-144.99;66.90;52289.13;5093822;28;19939;-72
2023/10/30 11:01:59;;;;;;;;;;;;;;;-144.99;66.21;52256.50;5082277;28;19932;-73
2023/10/30 11:04:29;;;;;;;;;;;;;;;-144.99;64.97;52240.19;5083111;28;20015;-72
2023/10/30 11:06:58;;;;;;;;;;;;;;;-144.99;64.68;52203.50;5078205;28;20550;-72
2023/10/30 11:09:29;;;;;;;;;;;;;;;-144.99;64.91;52232.03;5093902;28;19981;-71
2023/10/30 11:12:00;;;;;;;;;;;;;;;-144.99;65.84;52388.97;5089375;28;20000;-74
2023/10/30 11:14:30;;;;;;;;;;;;;;;-144.99;67.36;52268.72;5101085;28;19972;-74
2023/10/30 11:17:00;;;;;;;;;;;;;;;-144.99;68.39;52411.41;5090412;28;19929;-72
2023/10/30 11:19:28;;;;;;;;;;;;;;;-144.99;68.42;52252.44;5095228;28;20439;-74
2023/10/30 11:21:55;;;;;;;;;;;;;;;-144.99;66.89;52370.63;5098348;28;19934;-74
2023/10/30 11:24:38;;;;;;;;;;;;;;;-144.99;67.25;52413.44;5111179;22;20023;-77
2023/10/30 11:27:38;;;;;;;;;;;;;;;-144.99;69.63;52415.47;5082724;28;19928;-75
2023/10/30 11:30:06;;;;;;;;;;;;;;;-144.99;70.63;52301.34;5055692;28;19933;-77
2023/10/30 11:32:37;;;;;;;;;;;;;;;-144.99;70.35;52280.97;5063444;28;19931;-76
2023/10/30 11:35:06;;;;;;;;;;;;;;;-144.99;69.10;52399.19;5072177;28;19924;-76
2023/10/30 11:37:33;;;;;;;;;;;;;;;-144.99;69.59;52403.25;5092578;28;19969;-76
2023/10/30 11:40:02;;;;;;;;;;;;;;;-144.99;70.17;52331.91;4746238;28;10000461;-77
2023/10/30 11:42:32;;;;;;;;;;;;;;;-144.99;70.41;52399.19;5100983;28;19924;-76
2023/10/30 11:45:14;;;;;;;;;;;;;;;-144.99;72.05;52415.47;5093455;28;19928;-76
2023/10/30 11:47:42;;;;;;;;;;;;;;;-144.99;72.34;52338.03;5090835;28;19935;-76
2023/10/30 11:50:11;;;;;;;;;;;;;;;-144.99;71.96;52380.84;5098270;28;19940;-76
2023/10/30 11:52:38;;;;;;;;;;;;;;;-144.99;72.31;52346.19;5100429;28;19928;-78
2023/10/30 11:55:05;;;;;;;;;;;;;;;-144.99;71.69;52391.03;5100799;28;19924;-76
2023/10/30 11:57:32;;;;;;;;;;;;;;;-144.99;72.74;52399.19;5099532;28;20042;-75
2023/10/30 12:00:00;;;;;;;;;;;;;;;-144.99;73.01;52427.72;5098160;28;20310;-75
2023/10/30 12:02:27;;;;;;;;;;;;;;;-144.99;74.32;52419.56;5087330;28;19928;-76
2023/10/30 12:04:53;;;;;;;;;;;;;;;-144.99;73.64;52423.63;5087769;28;19939;-76
2023/10/30 12:07:21;;;;;;;;;;;;;;;-144.99;73.67;52313.56;5088365;28;19928;-75
2023/10/30 12:09:48;;;;;;;;;;;;;;;-144.99;71.97;52299.31;5098779;28;19977;-77
2023/10/30 12:12:15;;;;;;;;;;;;;;;-144.99;70.62;52289.13;5099597;28;19926;-76
2023/10/30 12:14:41;;;;;;;;;;;;;;;-144.99;70.02;52378.78;5115264;28;19912;-78
2023/10/30 12:17:08;;;;;;;;;;;;;;;-144.99;70.77;52313.56;5112884;28;19928;-75
2023/10/30 12:19:36;;;;;;;;;;;;;;;-144.99;70.66;52313.56;5114642;28;19932;-77
2023/10/30 12:22:03;;;;;;;;;;;;;;;-144.99;69.77;52276.88;5111866;28;19912;-77